Shokyu Maru — JG5288 — position and weather

sailwx.info

Track history (hours):
 
Tides and Currents Weather Stations Pressure Air Temp Water Temp Dewpoint Dewpoint Depression Visibility Wind Speed Wind Dir Waves Ship Positions

Shokyu Maru

Last reported at 2014-Sep-19 21:31 UTC. Time now 2014-Sep-19 21:54 UTC.
Position N 35°31' E 139°46'.

Length 91 m; draft 3.8 m.

Type: Tanker. MMSI: 431000253.

Date/timePositionNaut miles runAvg speedWind from/ knotsBaromVisibWave heightAir tempDewpointWater temp
2014-Sep-19 21:31N 35°31' E 139°46'6 6.2
2014-Sep-19 20:33N 35°25' E 139°45'2 1.5
2014-Sep-19 19:28N 35°24' E 139°45'0 0.0
2014-Sep-19 18:31N 35°24' E 139°45'0 0.0
2014-Sep-19 17:31N 35°24' E 139°45'0 0.0
2014-Sep-19 16:31N 35°24' E 139°45'0 0.0
2014-Sep-19 15:31N 35°24' E 139°45'0 0.1
2014-Sep-19 14:31N 35°24' E 139°45'0 0.0
2014-Sep-19 13:31N 35°24' E 139°45'0 0.0
2014-Sep-19 12:31N 35°24' E 139°45'0 0.0
2014-Sep-19 11:28N 35°24' E 139°45'0 0.0
2014-Sep-19 10:31N 35°24' E 139°45'0 0.0
2014-Sep-19 09:31N 35°24' E 139°45'0 0.1
2014-Sep-19 08:31N 35°24' E 139°44'4 3.9
2014-Sep-19 07:33N 35°26' E 139°47'1211.6
2014-Sep-19 06:33N 35°36' E 139°56'5 4.7
2014-Sep-19 05:31N 35°41' E 139°56'0 0.0
2014-Sep-19 04:31N 35°41' E 139°56'0 0.0
2014-Sep-19 03:31N 35°41' E 139°56'5 5.5
2014-Sep-19 02:33N 35°35' E 139°56'1111.0
2014-Sep-19 01:33N 35°28' E 139°46'5 4.5
2014-Sep-19 00:32N 35°28' E 139°40'0 0.0
2014-Sep-18 23:33N 35°28' E 139°40'2 2.5
2014-Sep-18 22:34N 35°26' E 139°43'2 1.7
2014-Sep-18 21:31N 35°28' E 139°44'0 0.0
2014-Sep-18 20:31N 35°28' E 139°44'0 0.1
2014-Sep-18 19:31N 35°28' E 139°44'0 0.0
2014-Sep-18 18:31N 35°28' E 139°44'0 0.0
2014-Sep-18 17:31N 35°28' E 139°44'0 0.1
2014-Sep-18 16:31N 35°28' E 139°44'0 0.0
2014-Sep-18 15:31N 35°28' E 139°44'0 0.0
2014-Sep-18 14:31N 35°28' E 139°44'0 0.0
2014-Sep-18 13:31N 35°28' E 139°44'0 0.0
2014-Sep-18 12:31N 35°28' E 139°44'0 0.0
2014-Sep-18 11:31N 35°28' E 139°44'0 0.0
2014-Sep-18 10:31N 35°28' E 139°44'0 0.0
2014-Sep-18 09:28N 35°28' E 139°44'0 0.1
2014-Sep-18 08:31N 35°28' E 139°44'0 0.1
2014-Sep-18 07:31N 35°28' E 139°44'0 0.0
2014-Sep-18 06:31N 35°28' E 139°44'7 7.6
2014-Sep-18 05:33N 35°33' E 139°51'5 4.5
2014-Sep-18 04:31N 35°36' E 139°55'0 0.0
2014-Sep-18 03:31N 35°36' E 139°55'0 0.0
2014-Sep-18 02:31N 35°36' E 139°55'0 0.1
2014-Sep-18 01:31N 35°36' E 139°55'0 0.0
2014-Sep-18 00:28N 35°36' E 139°55'0 0.0
2014-Sep-17 23:31N 35°36' E 139°55'0 0.0
2014-Sep-17 22:31N 35°36' E 139°55'0 0.0
2014-Sep-17 21:31N 35°36' E 139°55'0 0.0
2014-Sep-17 20:25N 35°36' E 139°55'0 0.0
2014-Sep-17 19:22N 35°36' E 139°55'0 0.0
2014-Sep-17 18:31N 35°36' E 139°55'0 0.0
2014-Sep-17 17:31N 35°36' E 139°55'0 0.0
2014-Sep-17 16:28N 35°36' E 139°55'0 0.0
2014-Sep-17 15:31N 35°36' E 139°55'0 0.0
2014-Sep-17 14:31N 35°36' E 139°55'0 0.0
2014-Sep-17 13:31N 35°36' E 139°55'0 0.0
2014-Sep-17 12:28N 35°36' E 139°55'0 0.0
2014-Sep-17 11:31N 35°36' E 139°55'0 0.0
2014-Sep-17 10:31N 35°36' E 139°55'0 0.0
2014-Sep-17 09:31N 35°36' E 139°55'4 4.3
2014-Sep-17 08:34N 35°33' E 139°52'5 4.6
2014-Sep-17 07:31N 35°31' E 139°46'0 0.0
2014-Sep-17 06:10N 35°31' E 139°46'0 0.0
2014-Sep-17 05:28N 35°31' E 139°46'0 0.0
2014-Sep-17 04:28N 35°31' E 139°46'0 0.4
2014-Sep-17 03:33N 35°31' E 139°46'3 3.5
2014-Sep-17 02:33N 35°28' E 139°47'1111.4
2014-Sep-17 01:33N 35°36' E 139°57'4 4.3
2014-Sep-17 00:31N 35°41' E 139°56'0 0.0
2014-Sep-16 23:31N 35°41' E 139°56'0 0.0
2014-Sep-16 22:31N 35°41' E 139°56'1 1.4
2014-Sep-16 21:33N 35°40' E 139°58'4 3.6
2014-Sep-16 20:26N 35°36' E 139°55'0 0.0
2014-Sep-16 19:29N 35°36' E 139°55'0 0.0
2014-Sep-16 18:32N 35°36' E 139°55'0 0.1
2014-Sep-16 17:32N 35°36' E 139°55'0 0.0
2014-Sep-16 16:32N 35°36' E 139°55'0 0.0
2014-Sep-16 15:32N 35°36' E 139°56'0 0.0
2014-Sep-16 14:32N 35°36' E 139°56'0 0.0
2014-Sep-16 13:26N 35°36' E 139°56'0 0.0
2014-Sep-16 12:33N 35°36' E 139°56'8 8.1
2014-Sep-16 11:33N 35°29' E 140°01'0 0.3
2014-Sep-16 10:31N 35°29' E 140°01'0 0.1
2014-Sep-16 09:31N 35°29' E 140°01'0 0.0
2014-Sep-16 08:31N 35°29' E 140°01'0 0.1
2014-Sep-16 07:31N 35°29' E 140°01'0 0.0
2014-Sep-16 06:31N 35°29' E 140°01'0 0.0
2014-Sep-16 05:31N 35°29' E 140°01'0 0.0
2014-Sep-16 04:31N 35°29' E 140°01'0 0.0
2014-Sep-16 03:25N 35°29' E 140°01'0 0.2
2014-Sep-16 02:33N 35°29' E 140°01'1110.7
2014-Sep-16 01:33N 35°39' E 139°58'2 1.7
2014-Sep-16 00:31N 35°41' E 139°56'0 0.0
2014-Sep-15 23:28N 35°41' E 139°56'0 0.0
2014-Sep-15 22:25N 35°41' E 139°56'1 1.5
2014-Sep-15 21:33N 35°40' E 139°58'4 4.1
2014-Sep-15 20:31N 35°36' E 139°55'0 0.0
2014-Sep-15 19:31N 35°36' E 139°55'0 0.0
2014-Sep-15 18:31N 35°36' E 139°55'0 0.0
2014-Sep-15 17:25N 35°36' E 139°56'0 0.0
2014-Sep-15 16:28N 35°36' E 139°56'0 0.0
2014-Sep-15 15:28N 35°36' E 139°55'0 0.0
2014-Sep-15 14:28N 35°36' E 139°56'0 0.1
2014-Sep-15 13:31N 35°36' E 139°55'0 0.1
2014-Sep-15 12:31N 35°36' E 139°55'0 0.0
2014-Sep-15 11:31N 35°36' E 139°55'0 0.1
2014-Sep-15 10:31N 35°36' E 139°56'0 0.0
2014-Sep-15 09:31N 35°36' E 139°56'0 0.0
2014-Sep-15 08:31N 35°36' E 139°55'3 2.8
2014-Sep-15 07:33N 35°33' E 139°57'6 5.9
2014-Sep-15 06:32N 35°28' E 140°01'0 0.0
2014-Sep-15 05:32N 35°28' E 140°01'0 0.0
2014-Sep-15 04:20N 35°28' E 140°01'0 0.0
2014-Sep-15 03:32N 35°28' E 140°01'0 0.0
2014-Sep-15 02:34N 35°28' E 140°01'7 7.3
2014-Sep-15 01:33N 35°35' E 139°59'5 5.2
2014-Sep-15 00:31N 35°41' E 139°56'0 0.0
2014-Sep-14 23:34N 35°41' E 139°56'0 0.0
2014-Sep-14 22:28N 35°41' E 139°56'2 2.0
2014-Sep-14 21:33N 35°39' E 139°58'4 4.0
2014-Sep-14 20:33N 35°36' E 139°55'0 0.0
2014-Sep-14 19:33N 35°36' E 139°55'0 0.0
2014-Sep-14 18:30N 35°36' E 139°55'0 0.0
2014-Sep-14 17:30N 35°36' E 139°55'0 0.0
2014-Sep-14 16:33N 35°36' E 139°55'0 0.1
2014-Sep-14 15:33N 35°36' E 139°55'0 0.0
2014-Sep-14 14:33N 35°36' E 139°55'0 0.0
2014-Sep-14 13:30N 35°36' E 139°55'0 0.0
2014-Sep-14 12:33N 35°36' E 139°55'0 0.0
2014-Sep-14 11:33N 35°36' E 139°55'0 0.0
2014-Sep-14 10:33N 35°36' E 139°55'0 0.0
2014-Sep-14 09:33N 35°36' E 139°55'0 0.0
2014-Sep-14 08:33N 35°36' E 139°55'0 0.0
2014-Sep-14 07:33N 35°36' E 139°55'0 0.0
2014-Sep-14 06:33N 35°36' E 139°55'0 0.0
2014-Sep-14 05:33N 35°36' E 139°55'0 0.0
2014-Sep-14 04:33N 35°36' E 139°55'0 0.0
2014-Sep-14 03:33N 35°36' E 139°55'8 8.3
2014-Sep-14 02:33N 35°29' E 140°01'0 0.1
2014-Sep-14 01:29N 35°29' E 140°01'4 1.0
2014-Sep-13 21:34N 35°29' E 139°56'9 9.2
2014-Sep-13 20:33N 35°27' E 139°45'5 5.3
2014-Sep-13 19:33N 35°29' E 139°39'0 0.0
2014-Sep-13 18:33N 35°29' E 139°39'0 0.0
2014-Sep-13 17:33N 35°29' E 139°39'0 0.0
2014-Sep-13 16:33N 35°29' E 139°39'0 0.0
2014-Sep-13 15:33N 35°29' E 139°39'0 0.1
2014-Sep-13 14:33N 35°29' E 139°39'0 0.1
2014-Sep-13 13:33N 35°29' E 139°39'0 0.0
2014-Sep-13 12:33N 35°29' E 139°39'0 0.0
2014-Sep-13 11:33N 35°29' E 139°39'0 0.0
2014-Sep-13 10:33N 35°29' E 139°39'0 0.0
2014-Sep-13 09:30N 35°29' E 139°39'0 0.1
2014-Sep-13 08:33N 35°29' E 139°39'0 0.0
2014-Sep-13 07:33N 35°29' E 139°39'0 0.1
2014-Sep-13 06:33N 35°29' E 139°39'0 0.0
2014-Sep-13 05:33N 35°29' E 139°39'0 0.1
2014-Sep-13 04:33N 35°28' E 139°39'7 7.2
2014-Sep-13 03:33N 35°28' E 139°48'1211.9
2014-Sep-13 02:33N 35°37' E 139°58'4 3.6
2014-Sep-13 01:32N 35°41' E 139°56'0 0.0
2014-Sep-13 00:33N 35°41' E 139°56'0 0.0
2014-Sep-12 23:27N 35°41' E 139°56'0 0.0
2014-Sep-12 22:33N 35°41' E 139°56'3 3.5
2014-Sep-12 21:33N 35°37' E 139°58'3 3.0
2014-Sep-12 20:32N 35°35' E 139°55'0 0.0
2014-Sep-12 19:32N 35°35' E 139°55'0 0.0
2014-Sep-12 18:26N 35°35' E 139°55'0 0.0
2014-Sep-12 17:32N 35°35' E 139°55'0 0.0
2014-Sep-12 16:20N 35°35' E 139°55'0 0.0
2014-Sep-12 15:32N 35°35' E 139°55'0 0.0
2014-Sep-12 14:32N 35°35' E 139°55'7 7.5
2014-Sep-12 13:33N 35°31' E 140°02'1 0.6
2014-Sep-12 12:31N 35°31' E 140°03'0 0.0
2014-Sep-12 11:28N 35°31' E 140°03'0 0.0
2014-Sep-12 10:31N 35°31' E 140°03'0 0.0
2014-Sep-12 09:31N 35°31' E 140°03'0 0.0
2014-Sep-12 08:31N 35°31' E 140°03'0 0.0
2014-Sep-12 07:16N 35°31' E 140°03'0 0.0
2014-Sep-12 06:31N 35°31' E 140°03'0 0.5
2014-Sep-12 05:33N 35°31' E 140°02'1 1.2
2014-Sep-12 04:33N 35°32' E 140°01'0 0.1
2014-Sep-12 03:27N 35°32' E 140°01'2 2.7
2014-Sep-12 02:34N 35°34' E 139°60'7 7.0
2014-Sep-12 01:32N 35°41' E 139°56'0 0.0
2014-Sep-12 00:32N 35°41' E 139°56'0 0.0
2014-Sep-11 23:29N 35°41' E 139°56'0 0.0
2014-Sep-11 22:26N 35°41' E 139°56'1 1.1
2014-Sep-11 21:33N 35°40' E 139°57'5 4.6
2014-Sep-11 20:31N 35°35' E 139°55'0 0.0
2014-Sep-11 19:31N 35°35' E 139°55'0 0.0
2014-Sep-11 18:31N 35°35' E 139°55'1 0.7
2014-Sep-11 17:33N 35°35' E 139°56'7 7.1
2014-Sep-11 16:31N 35°29' E 140°01'0 0.0
2014-Sep-11 15:31N 35°29' E 140°01'0 0.0
2014-Sep-11 14:25N 35°29' E 140°01'0 0.0
2014-Sep-11 13:31N 35°29' E 140°01'0 0.0
2014-Sep-11 12:31N 35°29' E 140°01'0 0.0
2014-Sep-11 11:28N 35°29' E 140°01'0 0.1
2014-Sep-11 10:31N 35°29' E 140°01'0 0.0
2014-Sep-11 09:28N 35°29' E 140°01'0 0.1
2014-Sep-11 08:31N 35°29' E 140°01'0 0.0
2014-Sep-11 07:31N 35°29' E 140°01'0 0.0
2014-Sep-11 06:31N 35°29' E 140°01'2 2.2
2014-Sep-11 05:33N 35°30' E 139°59'0 0.0
2014-Sep-11 04:28N 35°30' E 139°59'3 3.5
2014-Sep-11 03:33N 35°32' E 139°56'8 8.1
2014-Sep-11 02:34N 35°40' E 139°57'0 0.2
2014-Sep-11 01:33N 35°41' E 139°56'0 0.0
2014-Sep-11 00:33N 35°41' E 139°56'0 0.0
2014-Sep-10 23:33N 35°41' E 139°56'0 0.0
2014-Sep-10 22:30N 35°41' E 139°56'2 2.2
2014-Sep-10 21:33N 35°39' E 139°58'4 4.3
2014-Sep-10 20:33N 35°35' E 139°55'0 0.0
2014-Sep-10 19:30N 35°35' E 139°55'0 0.0
2014-Sep-10 18:30N 35°35' E 139°55'0 0.0
2014-Sep-10 17:33N 35°35' E 139°55'0 0.0
2014-Sep-10 16:30N 35°35' E 139°55'0 0.0
2014-Sep-10 15:33N 35°35' E 139°55'0 0.0
2014-Sep-10 14:30N 35°35' E 139°55'0 0.0
2014-Sep-10 13:33N 35°35' E 139°55'4 3.6
2014-Sep-10 12:33N 35°33' E 139°59'4 3.6
2014-Sep-10 11:31N 35°31' E 140°02'0 0.0
2014-Sep-10 10:28N 35°31' E 140°02'0 0.0
2014-Sep-10 09:31N 35°31' E 140°02'0 0.0
2014-Sep-10 08:31N 35°31' E 140°02'4 3.9
2014-Sep-10 07:33N 35°33' E 139°58'3 3.1
2014-Sep-10 06:32N 35°34' E 139°55'0 0.0
2014-Sep-10 05:32N 35°34' E 139°55'0 0.0
2014-Sep-10 04:32N 35°34' E 139°55'0 0.0
2014-Sep-10 03:26N 35°34' E 139°55'0 0.0
2014-Sep-10 02:29N 35°34' E 139°55'4 4.0
2014-Sep-10 01:33N 35°37' E 139°58'3 3.3
2014-Sep-10 00:31N 35°41' E 139°56'0 0.0
2014-Sep-09 23:22N 35°41' E 139°56'0 0.0
2014-Sep-09 22:31N 35°41' E 139°56'2 2.1
2014-Sep-09 21:33N 35°39' E 139°58'  
Track history (hours):
 
Tides and Currents Weather Stations Pressure Air Temp Water Temp Dewpoint Dewpoint Depression Visibility Wind Speed Wind Dir Waves Ship Positions

Shokyu Maru

Last reported at 2014-Sep-19 21:31 UTC. Time now 2014-Sep-19 21:54 UTC.
Position N 35°31' E 139°46'.

Length 91 m; draft 3.8 m.

Type: Tanker. MMSI: 431000253.

Date/timePositionNaut miles runAvg speedWind from/ knotsBaromVisibWave heightAir tempDewpointWater temp
2014-Sep-19 21:31N 35°31' E 139°46'6 6.2
2014-Sep-19 20:33N 35°25' E 139°45'2 1.5
2014-Sep-19 19:28N 35°24' E 139°45'0 0.0
2014-Sep-19 18:31N 35°24' E 139°45'0 0.0
2014-Sep-19 17:31N 35°24' E 139°45'0 0.0
2014-Sep-19 16:31N 35°24' E 139°45'0 0.0
2014-Sep-19 15:31N 35°24' E 139°45'0 0.1
2014-Sep-19 14:31N 35°24' E 139°45'0 0.0
2014-Sep-19 13:31N 35°24' E 139°45'0 0.0
2014-Sep-19 12:31N 35°24' E 139°45'0 0.0
2014-Sep-19 11:28N 35°24' E 139°45'0 0.0
2014-Sep-19 10:31N 35°24' E 139°45'0 0.0
2014-Sep-19 09:31N 35°24' E 139°45'0 0.1
2014-Sep-19 08:31N 35°24' E 139°44'4 3.9
2014-Sep-19 07:33N 35°26' E 139°47'1211.6
2014-Sep-19 06:33N 35°36' E 139°56'5 4.7
2014-Sep-19 05:31N 35°41' E 139°56'0 0.0
2014-Sep-19 04:31N 35°41' E 139°56'0 0.0
2014-Sep-19 03:31N 35°41' E 139°56'5 5.5
2014-Sep-19 02:33N 35°35' E 139°56'1111.0
2014-Sep-19 01:33N 35°28' E 139°46'5 4.5
2014-Sep-19 00:32N 35°28' E 139°40'0 0.0
2014-Sep-18 23:33N 35°28' E 139°40'2 2.5
2014-Sep-18 22:34N 35°26' E 139°43'2 1.7
2014-Sep-18 21:31N 35°28' E 139°44'0 0.0
2014-Sep-18 20:31N 35°28' E 139°44'0 0.1
2014-Sep-18 19:31N 35°28' E 139°44'0 0.0
2014-Sep-18 18:31N 35°28' E 139°44'0 0.0
2014-Sep-18 17:31N 35°28' E 139°44'0 0.1
2014-Sep-18 16:31N 35°28' E 139°44'0 0.0
2014-Sep-18 15:31N 35°28' E 139°44'0 0.0
2014-Sep-18 14:31N 35°28' E 139°44'0 0.0
2014-Sep-18 13:31N 35°28' E 139°44'0 0.0
2014-Sep-18 12:31N 35°28' E 139°44'0 0.0
2014-Sep-18 11:31N 35°28' E 139°44'0 0.0
2014-Sep-18 10:31N 35°28' E 139°44'0 0.0
2014-Sep-18 09:28N 35°28' E 139°44'0 0.1
2014-Sep-18 08:31N 35°28' E 139°44'0 0.1
2014-Sep-18 07:31N 35°28' E 139°44'0 0.0
2014-Sep-18 06:31N 35°28' E 139°44'7 7.6
2014-Sep-18 05:33N 35°33' E 139°51'5 4.5
2014-Sep-18 04:31N 35°36' E 139°55'0 0.0
2014-Sep-18 03:31N 35°36' E 139°55'0 0.0
2014-Sep-18 02:31N 35°36' E 139°55'0 0.1
2014-Sep-18 01:31N 35°36' E 139°55'0 0.0
2014-Sep-18 00:28N 35°36' E 139°55'0 0.0
2014-Sep-17 23:31N 35°36' E 139°55'0 0.0
2014-Sep-17 22:31N 35°36' E 139°55'0 0.0
2014-Sep-17 21:31N 35°36' E 139°55'0 0.0
2014-Sep-17 20:25N 35°36' E 139°55'0 0.0
2014-Sep-17 19:22N 35°36' E 139°55'0 0.0
2014-Sep-17 18:31N 35°36' E 139°55'0 0.0
2014-Sep-17 17:31N 35°36' E 139°55'0 0.0
2014-Sep-17 16:28N 35°36' E 139°55'0 0.0
2014-Sep-17 15:31N 35°36' E 139°55'0 0.0
2014-Sep-17 14:31N 35°36' E 139°55'0 0.0
2014-Sep-17 13:31N 35°36' E 139°55'0 0.0
2014-Sep-17 12:28N 35°36' E 139°55'0 0.0
2014-Sep-17 11:31N 35°36' E 139°55'0 0.0
2014-Sep-17 10:31N 35°36' E 139°55'0 0.0
2014-Sep-17 09:31N 35°36' E 139°55'4 4.3
2014-Sep-17 08:34N 35°33' E 139°52'5 4.6
2014-Sep-17 07:31N 35°31' E 139°46'0 0.0
2014-Sep-17 06:10N 35°31' E 139°46'0 0.0
2014-Sep-17 05:28N 35°31' E 139°46'0 0.0
2014-Sep-17 04:28N 35°31' E 139°46'0 0.4
2014-Sep-17 03:33N 35°31' E 139°46'3 3.5
2014-Sep-17 02:33N 35°28' E 139°47'1111.4
2014-Sep-17 01:33N 35°36' E 139°57'4 4.3
2014-Sep-17 00:31N 35°41' E 139°56'0 0.0
2014-Sep-16 23:31N 35°41' E 139°56'0 0.0
2014-Sep-16 22:31N 35°41' E 139°56'1 1.4
2014-Sep-16 21:33N 35°40' E 139°58'4 3.6
2014-Sep-16 20:26N 35°36' E 139°55'0 0.0
2014-Sep-16 19:29N 35°36' E 139°55'0 0.0
2014-Sep-16 18:32N 35°36' E 139°55'0 0.1
2014-Sep-16 17:32N 35°36' E 139°55'0 0.0
2014-Sep-16 16:32N 35°36' E 139°55'0 0.0
2014-Sep-16 15:32N 35°36' E 139°56'0 0.0
2014-Sep-16 14:32N 35°36' E 139°56'0 0.0
2014-Sep-16 13:26N 35°36' E 139°56'0 0.0
2014-Sep-16 12:33N 35°36' E 139°56'8 8.1
2014-Sep-16 11:33N 35°29' E 140°01'0 0.3
2014-Sep-16 10:31N 35°29' E 140°01'0 0.1
2014-Sep-16 09:31N 35°29' E 140°01'0 0.0
2014-Sep-16 08:31N 35°29' E 140°01'0 0.1
2014-Sep-16 07:31N 35°29' E 140°01'0 0.0
2014-Sep-16 06:31N 35°29' E 140°01'0 0.0
2014-Sep-16 05:31N 35°29' E 140°01'0 0.0
2014-Sep-16 04:31N 35°29' E 140°01'0 0.0
2014-Sep-16 03:25N 35°29' E 140°01'0 0.2
2014-Sep-16 02:33N 35°29' E 140°01'1110.7
2014-Sep-16 01:33N 35°39' E 139°58'2 1.7
2014-Sep-16 00:31N 35°41' E 139°56'0 0.0
2014-Sep-15 23:28N 35°41' E 139°56'0 0.0
2014-Sep-15 22:25N 35°41' E 139°56'1 1.5
2014-Sep-15 21:33N 35°40' E 139°58'4 4.1
2014-Sep-15 20:31N 35°36' E 139°55'0 0.0
2014-Sep-15 19:31N 35°36' E 139°55'0 0.0
2014-Sep-15 18:31N 35°36' E 139°55'0 0.0
2014-Sep-15 17:25N 35°36' E 139°56'0 0.0
2014-Sep-15 16:28N 35°36' E 139°56'0 0.0
2014-Sep-15 15:28N 35°36' E 139°55'0 0.0
2014-Sep-15 14:28N 35°36' E 139°56'0 0.1
2014-Sep-15 13:31N 35°36' E 139°55'0 0.1
2014-Sep-15 12:31N 35°36' E 139°55'0 0.0
2014-Sep-15 11:31N 35°36' E 139°55'0 0.1
2014-Sep-15 10:31N 35°36' E 139°56'0 0.0
2014-Sep-15 09:31N 35°36' E 139°56'0 0.0
2014-Sep-15 08:31N 35°36' E 139°55'3 2.8
2014-Sep-15 07:33N 35°33' E 139°57'6 5.9
2014-Sep-15 06:32N 35°28' E 140°01'0 0.0
2014-Sep-15 05:32N 35°28' E 140°01'0 0.0
2014-Sep-15 04:20N 35°28' E 140°01'0 0.0
2014-Sep-15 03:32N 35°28' E 140°01'0 0.0
2014-Sep-15 02:34N 35°28' E 140°01'7 7.3
2014-Sep-15 01:33N 35°35' E 139°59'5 5.2
2014-Sep-15 00:31N 35°41' E 139°56'0 0.0
2014-Sep-14 23:34N 35°41' E 139°56'0 0.0
2014-Sep-14 22:28N 35°41' E 139°56'2 2.0
2014-Sep-14 21:33N 35°39' E 139°58'4 4.0
2014-Sep-14 20:33N 35°36' E 139°55'0 0.0
2014-Sep-14 19:33N 35°36' E 139°55'0 0.0
2014-Sep-14 18:30N 35°36' E 139°55'0 0.0
2014-Sep-14 17:30N 35°36' E 139°55'0 0.0
2014-Sep-14 16:33N 35°36' E 139°55'0 0.1
2014-Sep-14 15:33N 35°36' E 139°55'0 0.0
2014-Sep-14 14:33N 35°36' E 139°55'0 0.0
2014-Sep-14 13:30N 35°36' E 139°55'0 0.0
2014-Sep-14 12:33N 35°36' E 139°55'0 0.0
2014-Sep-14 11:33N 35°36' E 139°55'0 0.0
2014-Sep-14 10:33N 35°36' E 139°55'0 0.0
2014-Sep-14 09:33N 35°36' E 139°55'0 0.0
2014-Sep-14 08:33N 35°36' E 139°55'0 0.0
2014-Sep-14 07:33N 35°36' E 139°55'0 0.0
2014-Sep-14 06:33N 35°36' E 139°55'0 0.0
2014-Sep-14 05:33N 35°36' E 139°55'0 0.0
2014-Sep-14 04:33N 35°36' E 139°55'0 0.0
2014-Sep-14 03:33N 35°36' E 139°55'8 8.3
2014-Sep-14 02:33N 35°29' E 140°01'0 0.1
2014-Sep-14 01:29N 35°29' E 140°01'4 1.0
2014-Sep-13 21:34N 35°29' E 139°56'9 9.2
2014-Sep-13 20:33N 35°27' E 139°45'5 5.3
2014-Sep-13 19:33N 35°29' E 139°39'0 0.0
2014-Sep-13 18:33N 35°29' E 139°39'0 0.0
2014-Sep-13 17:33N 35°29' E 139°39'0 0.0
2014-Sep-13 16:33N 35°29' E 139°39'0 0.0
2014-Sep-13 15:33N 35°29' E 139°39'0 0.1
2014-Sep-13 14:33N 35°29' E 139°39'0 0.1
2014-Sep-13 13:33N 35°29' E 139°39'0 0.0
2014-Sep-13 12:33N 35°29' E 139°39'0 0.0
2014-Sep-13 11:33N 35°29' E 139°39'0 0.0
2014-Sep-13 10:33N 35°29' E 139°39'0 0.0
2014-Sep-13 09:30N 35°29' E 139°39'0 0.1
2014-Sep-13 08:33N 35°29' E 139°39'0 0.0
2014-Sep-13 07:33N 35°29' E 139°39'0 0.1
2014-Sep-13 06:33N 35°29' E 139°39'0 0.0
2014-Sep-13 05:33N 35°29' E 139°39'0 0.1
2014-Sep-13 04:33N 35°28' E 139°39'7 7.2
2014-Sep-13 03:33N 35°28' E 139°48'1211.9
2014-Sep-13 02:33N 35°37' E 139°58'4 3.6
2014-Sep-13 01:32N 35°41' E 139°56'0 0.0
2014-Sep-13 00:33N 35°41' E 139°56'0 0.0
2014-Sep-12 23:27N 35°41' E 139°56'0 0.0
2014-Sep-12 22:33N 35°41' E 139°56'3 3.5
2014-Sep-12 21:33N 35°37' E 139°58'3 3.0
2014-Sep-12 20:32N 35°35' E 139°55'0 0.0
2014-Sep-12 19:32N 35°35' E 139°55'0 0.0
2014-Sep-12 18:26N 35°35' E 139°55'0 0.0
2014-Sep-12 17:32N 35°35' E 139°55'0 0.0
2014-Sep-12 16:20N 35°35' E 139°55'0 0.0
2014-Sep-12 15:32N 35°35' E 139°55'0 0.0
2014-Sep-12 14:32N 35°35' E 139°55'7 7.5
2014-Sep-12 13:33N 35°31' E 140°02'1 0.6
2014-Sep-12 12:31N 35°31' E 140°03'0 0.0
2014-Sep-12 11:28N 35°31' E 140°03'0 0.0
2014-Sep-12 10:31N 35°31' E 140°03'0 0.0
2014-Sep-12 09:31N 35°31' E 140°03'0 0.0
2014-Sep-12 08:31N 35°31' E 140°03'0 0.0
2014-Sep-12 07:16N 35°31' E 140°03'0 0.0
2014-Sep-12 06:31N 35°31' E 140°03'0 0.5
2014-Sep-12 05:33N 35°31' E 140°02'1 1.2
2014-Sep-12 04:33N 35°32' E 140°01'0 0.1
2014-Sep-12 03:27N 35°32' E 140°01'2 2.7
2014-Sep-12 02:34N 35°34' E 139°60'7 7.0
2014-Sep-12 01:32N 35°41' E 139°56'0 0.0
2014-Sep-12 00:32N 35°41' E 139°56'0 0.0
2014-Sep-11 23:29N 35°41' E 139°56'0 0.0
2014-Sep-11 22:26N 35°41' E 139°56'1 1.1
2014-Sep-11 21:33N 35°40' E 139°57'5 4.6
2014-Sep-11 20:31N 35°35' E 139°55'0 0.0
2014-Sep-11 19:31N 35°35' E 139°55'0 0.0
2014-Sep-11 18:31N 35°35' E 139°55'1 0.7
2014-Sep-11 17:33N 35°35' E 139°56'7 7.1
2014-Sep-11 16:31N 35°29' E 140°01'0 0.0
2014-Sep-11 15:31N 35°29' E 140°01'0 0.0
2014-Sep-11 14:25N 35°29' E 140°01'0 0.0
2014-Sep-11 13:31N 35°29' E 140°01'0 0.0
2014-Sep-11 12:31N 35°29' E 140°01'0 0.0
2014-Sep-11 11:28N 35°29' E 140°01'0 0.1
2014-Sep-11 10:31N 35°29' E 140°01'0 0.0
2014-Sep-11 09:28N 35°29' E 140°01'0 0.1
2014-Sep-11 08:31N 35°29' E 140°01'0 0.0
2014-Sep-11 07:31N 35°29' E 140°01'0 0.0
2014-Sep-11 06:31N 35°29' E 140°01'2 2.2
2014-Sep-11 05:33N 35°30' E 139°59'0 0.0
2014-Sep-11 04:28N 35°30' E 139°59'3 3.5
2014-Sep-11 03:33N 35°32' E 139°56'8 8.1
2014-Sep-11 02:34N 35°40' E 139°57'0 0.2
2014-Sep-11 01:33N 35°41' E 139°56'0 0.0
2014-Sep-11 00:33N 35°41' E 139°56'0 0.0
2014-Sep-10 23:33N 35°41' E 139°56'0 0.0
2014-Sep-10 22:30N 35°41' E 139°56'2 2.2
2014-Sep-10 21:33N 35°39' E 139°58'4 4.3
2014-Sep-10 20:33N 35°35' E 139°55'0 0.0
2014-Sep-10 19:30N 35°35' E 139°55'0 0.0
2014-Sep-10 18:30N 35°35' E 139°55'0 0.0
2014-Sep-10 17:33N 35°35' E 139°55'0 0.0
2014-Sep-10 16:30N 35°35' E 139°55'0 0.0
2014-Sep-10 15:33N 35°35' E 139°55'0 0.0
2014-Sep-10 14:30N 35°35' E 139°55'0 0.0
2014-Sep-10 13:33N 35°35' E 139°55'4 3.6
2014-Sep-10 12:33N 35°33' E 139°59'4 3.6
2014-Sep-10 11:31N 35°31' E 140°02'0 0.0
2014-Sep-10 10:28N 35°31' E 140°02'0 0.0
2014-Sep-10 09:31N 35°31' E 140°02'0 0.0
2014-Sep-10 08:31N 35°31' E 140°02'4 3.9
2014-Sep-10 07:33N 35°33' E 139°58'3 3.1
2014-Sep-10 06:32N 35°34' E 139°55'0 0.0
2014-Sep-10 05:32N 35°34' E 139°55'0 0.0
2014-Sep-10 04:32N 35°34' E 139°55'0 0.0
2014-Sep-10 03:26N 35°34' E 139°55'0 0.0
2014-Sep-10 02:29N 35°34' E 139°55'4 4.0
2014-Sep-10 01:33N 35°37' E 139°58'3 3.3
2014-Sep-10 00:31N 35°41' E 139°56'0 0.0
2014-Sep-09 23:22N 35°41' E 139°56'0 0.0
2014-Sep-09 22:31N 35°41' E 139°56'2 2.1
2014-Sep-09 21:33N 35°39' E 139°58'  

Dump ship's entire track history